Time;durP1;ratioP1;P1;durP2;ratioP2;P2;SDS_P1;SDS_P2;PMS_P1;PMS_P2;Temp;Humidity;BMP_temperature;BMP_pressure;BME280_temperature;BME280_humidity;BME280_pressure;Samples;Min_cycle;Max_cycle;Signal;HPM_P1;HPM_P2
2022/01/06 00:00:08;;;;;;;3.67;1.20;;;;;;;1.91;80.12;100902.66;5048751;28;20189;-71
2022/01/06 00:02:37;;;;;;;3.37;0.83;;;;;;;1.90;80.71;100908.50;5049480;28;20599;-71
2022/01/06 00:05:04;;;;;;;3.57;1.10;;;;;;;1.85;80.09;100908.28;5051206;28;20565;-71
2022/01/06 00:07:30;;;;;;;5.67;1.30;;;;;;;1.81;80.81;100919.00;5050447;28;20201;-71
2022/01/06 00:09:56;;;;;;;4.07;1.03;;;;;;;1.81;80.35;100923.16;5049394;28;20189;-71
2022/01/06 00:12:27;;;;;;;5.00;1.20;;;;;;;1.75;81.03;100930.41;5049423;28;20273;-71
2022/01/06 00:15:03;;;;;;;6.23;1.00;;;;;;;1.72;81.61;100932.75;5052078;28;20221;-71
2022/01/06 00:18:11;;;;;;;4.77;1.10;;;;;;;1.69;81.29;100937.63;5046706;28;20301;-71
2022/01/06 00:25:47;;;;;;;3.30;1.10;;;;;;;1.65;81.91;100958.44;5047727;28;20228;-71
2022/01/06 00:28:12;;;;;;;3.53;1.27;;;;;;;1.63;81.34;100967.53;5045767;28;20182;-71
2022/01/06 00:30:38;;;;;;;5.40;1.00;;;;;;;1.60;82.01;100970.78;5048015;28;20204;-71
2022/01/06 00:33:03;;;;;;;2.97;1.17;;;;;;;1.58;81.41;100984.97;5048463;28;20196;-71
2022/01/06 00:35:28;;;;;;;4.47;1.50;;;;;;;1.58;80.76;100977.41;5051350;28;20768;-71
2022/01/06 00:37:54;;;;;;;2.33;0.80;;;;;;;1.56;80.48;100976.41;5042994;28;20222;-71
2022/01/06 00:40:19;;;;;;;4.37;1.30;;;;;;;1.53;80.42;100985.47;5046090;28;20256;-71
2022/01/06 00:42:44;;;;;;;6.47;1.10;;;;;;;1.52;81.61;100987.13;5048699;28;20193;-71
2022/01/06 00:45:09;;;;;;;3.90;1.13;;;;;;;1.49;81.06;100991.13;5050422;28;20205;-71
2022/01/06 00:47:35;;;;;;;3.33;1.00;;;;;;;1.45;82.34;101002.69;5046913;28;20186;-71
2022/01/06 00:50:00;;;;;;;4.50;1.30;;;;;;;1.43;81.58;101003.41;5050842;28;20204;-71
2022/01/06 00:52:26;;;;;;;5.47;1.37;;;;;;;1.41;82.60;101005.81;5048881;28;20197;-71
2022/01/06 00:54:51;;;;;;;4.47;1.10;;;;;;;1.36;82.31;101011.38;5051122;28;20646;-71
2022/01/06 00:57:16;;;;;;;3.57;1.20;;;;;;;1.32;82.76;101012.84;5048260;28;20636;-71
2022/01/06 00:59:42;;;;;;;5.77;1.33;;;;;;;1.29;83.19;101024.44;5045462;28;20185;-71
2022/01/06 01:02:07;;;;;;;3.10;1.07;;;;;;;1.28;82.32;101017.66;5045968;28;20186;-71
2022/01/06 01:04:32;;;;;;;3.83;1.10;;;;;;;1.23;83.27;101019.03;5050922;28;20201;-71
2022/01/06 01:06:58;;;;;;;4.40;1.00;;;;;;;1.22;83.42;101025.72;5048864;28;20208;-71
2022/01/06 01:09:23;;;;;;;5.57;1.40;;;;;;;1.19;83.64;101028.03;5046662;28;20236;-71
2022/01/06 01:11:48;;;;;;;4.97;1.10;;;;;;;1.20;83.06;101036.50;5047304;28;20300;-71
2022/01/06 01:14:42;;;;;;;4.17;1.13;;;;;;;1.18;83.21;101038.91;5049278;28;20244;-71
2022/01/06 01:17:03;;;;;;;5.17;1.00;;;;;;;1.18;82.53;101045.59;5040848;28;20682;-71
2022/01/06 01:19:30;;;;;;;5.17;1.23;;;;;;;1.13;83.87;101045.34;5050361;28;20490;-71
2022/01/06 01:21:57;;;;;;;5.77;1.40;;;;;;;1.10;83.40;101054.38;5048166;28;20225;-71
2022/01/06 01:24:23;;;;;;;3.73;1.10;;;;;;;1.08;82.93;101058.44;5047736;28;20196;-71
2022/01/06 01:26:49;;;;;;;5.10;1.20;;;;;;;1.06;83.77;101063.38;5045478;28;20256;-71
2022/01/06 01:29:19;;;;;;;3.73;1.03;;;;;;;1.04;83.06;101064.06;5047209;28;20217;-71
2022/01/06 01:31:54;;;;;;;3.80;1.13;;;;;;;1.04;83.45;101071.63;5046417;28;20220;-72
2022/01/06 01:34:24;;;;;;;5.53;1.53;;;;;;;0.98;83.69;101079.72;5050287;28;20189;-71
2022/01/06 01:36:50;;;;;;;3.43;0.90;;;;;;;0.97;83.49;101077.97;5045233;28;20728;-71
2022/01/06 01:39:15;;;;;;;4.23;1.40;;;;;;;0.95;83.96;101082.03;5049987;28;20182;-71
2022/01/06 01:41:41;;;;;;;4.37;1.10;;;;;;;0.96;83.67;101085.44;5042304;28;20715;-71
2022/01/06 01:44:12;;;;;;;5.23;1.10;;;;;;;0.93;84.48;101092.81;5048720;28;20204;-71
2022/01/06 01:46:44;;;;;;;6.33;1.07;;;;;;;0.93;84.05;101107.94;5047895;28;20210;-71
2022/01/06 01:49:17;;;;;;;2.97;1.10;;;;;;;0.88;84.52;101112.69;5049909;28;20216;-71
2022/01/06 01:51:43;;;;;;;3.20;0.83;;;;;;;0.88;84.54;101116.84;5027708;28;20182;-72
2022/01/06 01:54:09;;;;;;;5.00;1.10;;;;;;;0.87;84.84;101126.06;5049482;28;20220;-71
2022/01/06 01:56:36;;;;;;;3.73;1.10;;;;;;;0.85;84.78;101135.19;5048448;28;20226;-71
2022/01/06 01:59:02;;;;;;;5.07;1.10;;;;;;;0.81;84.45;101135.75;5048875;28;20678;-71
2022/01/06 02:01:27;;;;;;;4.27;1.30;;;;;;;0.80;84.24;101140.69;5047888;28;20202;-71
2022/01/06 02:03:52;;;;;;;5.33;1.10;;;;;;;0.80;84.75;101143.22;5049668;28;20213;-71
2022/01/06 02:06:19;;;;;;;4.23;1.00;;;;;;;0.77;85.02;101146.41;5048106;28;20236;-71
2022/01/06 02:08:45;;;;;;;3.40;1.00;;;;;;;0.75;85.36;101150.50;5041276;28;20186;-71
2022/01/06 02:11:10;;;;;;;3.97;0.97;;;;;;;0.74;85.35;101148.78;5045641;28;20217;-71
2022/01/06 02:13:45;;;;;;;3.90;1.23;;;;;;;0.71;85.18;101151.09;5046083;28;20197;-71
2022/01/06 02:16:11;;;;;;;7.07;1.50;;;;;;;0.70;85.84;101161.06;5044217;28;20210;-71
2022/01/06 02:18:36;;;;;;;3.90;1.30;;;;;;;0.67;86.08;101161.75;5047988;28;20263;-71
2022/01/06 02:21:01;;;;;;;4.37;1.20;;;;;;;0.64;85.68;101163.22;5048713;28;20216;-71
2022/01/06 02:23:27;;;;;;;5.40;1.43;;;;;;;0.62;85.99;101157.19;5047070;28;20275;-72
2022/01/06 02:25:52;;;;;;;2.97;1.00;;;;;;;0.57;85.96;101161.06;5047821;28;20220;-71
2022/01/06 02:28:20;;;;;;;2.90;1.17;;;;;;;0.52;86.46;101163.28;5043657;28;20178;-71
2022/01/06 02:30:51;;;;;;;4.87;1.30;;;;;;;0.49;85.94;101163.09;5046435;28;20681;-71
2022/01/06 02:33:17;;;;;;;6.63;1.67;;;;;;;0.45;86.63;101158.63;5045592;28;20175;-71
2022/01/06 02:35:42;;;;;;;4.93;1.40;;;;;;;0.43;87.13;101160.19;5047537;28;22248;-71
2022/01/06 02:38:09;;;;;;;6.13;1.37;;;;;;;0.35;87.00;101163.84;5042806;28;20209;-71
2022/01/06 02:40:34;;;;;;;2.93;1.47;;;;;;;0.34;86.64;101167.16;5048586;28;20235;-71
2022/01/06 02:43:02;;;;;;;6.73;1.50;;;;;;;0.33;87.31;101172.97;5048498;28;20193;-71
2022/01/06 02:45:29;;;;;;;6.17;1.47;;;;;;;0.34;87.04;101172.19;5047762;28;20218;-71
2022/01/06 02:47:55;;;;;;;5.10;1.43;;;;;;;0.34;87.49;101169.66;5042368;28;20189;-71
2022/01/06 02:50:22;;;;;;;3.93;1.50;;;;;;;0.31;87.53;101174.50;5044967;28;20784;-71
2022/01/06 02:52:47;;;;;;;4.50;1.30;;;;;;;0.27;87.19;101175.06;5043765;28;20269;-71
2022/01/06 02:55:14;;;;;;;6.10;1.20;;;;;;;0.27;87.43;101175.06;5050983;28;20694;-72
2022/01/06 02:57:40;;;;;;;4.63;1.43;;;;;;;0.24;86.62;101169.84;5050827;28;20585;-71
2022/01/06 03:00:08;;;;;;;4.67;1.30;;;;;;;0.17;86.44;101182.81;5047765;28;20190;-71
2022/01/06 03:02:33;;;;;;;2.50;1.03;;;;;;;0.12;86.00;101191.69;5047055;28;20194;-71
2022/01/06 03:04:59;;;;;;;3.97;1.40;;;;;;;0.11;86.75;101195.00;5053106;28;20208;-71
2022/01/06 03:07:26;;;;;;;4.50;1.40;;;;;;;0.07;86.36;101195.56;5050535;28;20282;-71
2022/01/06 03:09:55;;;;;;;6.07;1.30;;;;;;;0.08;86.54;101202.34;5047595;28;20196;-72
2022/01/06 03:12:29;;;;;;;5.27;1.10;;;;;;;0.10;87.07;101199.16;5052540;28;20197;-71
2022/01/06 03:14:55;;;;;;;7.33;1.60;;;;;;;0.10;86.42;101209.22;5046254;28;20200;-71
2022/01/06 03:17:21;;;;;;;5.53;1.20;;;;;;;0.10;87.36;101206.69;5045800;28;20224;-71
2022/01/06 03:19:46;;;;;;;4.10;1.30;;;;;;;0.11;86.81;101210.94;5052712;28;20190;-71
2022/01/06 03:22:11;;;;;;;7.00;1.20;;;;;;;0.10;86.66;101226.81;5047349;28;20202;-71
2022/01/06 03:24:37;;;;;;;4.53;1.33;;;;;;;0.04;86.99;101231.47;5051695;28;20205;-72
2022/01/06 03:27:02;;;;;;;2.90;0.97;;;;;;;-0.01;87.44;101225.25;5050977;28;20236;-72
2022/01/06 03:29:28;;;;;;;3.97;1.10;;;;;;;-0.07;87.15;101239.06;5052347;28;20221;-71
2022/01/06 03:31:53;;;;;;;3.97;1.77;;;;;;;-0.09;86.71;101241.47;5046825;28;20185;-71
2022/01/06 03:34:19;;;;;;;2.87;1.20;;;;;;;-0.11;86.83;101235.47;5052683;28;20174;-72
2022/01/06 03:36:44;;;;;;;3.80;1.30;;;;;;;-0.12;86.76;101238.78;5047194;28;20237;-71
2022/01/06 03:39:09;;;;;;;5.23;1.43;;;;;;;-0.18;87.19;101245.03;5050257;28;20323;-72
2022/01/06 03:41:35;;;;;;;3.57;1.20;;;;;;;-0.18;87.11;101245.03;5051625;28;20235;-72
2022/01/06 03:44:00;;;;;;;4.23;1.50;;;;;;;-0.20;86.70;101244.91;5051186;28;20185;-71
2022/01/06 03:46:26;;;;;;;3.77;1.37;;;;;;;-0.22;87.01;101258.16;5050554;28;20800;-71
2022/01/06 03:48:51;;;;;;;6.60;1.30;;;;;;;-0.25;87.60;101262.97;5049012;28;20181;-71
2022/01/06 03:51:20;;;;;;;5.27;1.37;;;;;;;-0.32;87.42;101279.28;5048391;28;20221;-72
2022/01/06 03:53:46;;;;;;;4.83;1.23;;;;;;;-0.29;87.38;101283.66;5047100;28;20223;-71
2022/01/06 03:56:11;;;;;;;3.23;1.50;;;;;;;-0.32;87.24;101285.97;5048813;28;20206;-72
2022/01/06 03:58:39;;;;;;;7.30;1.40;;;;;;;-0.27;87.25;101287.16;5049871;28;20217;-72
2022/01/06 04:01:05;;;;;;;5.60;1.57;;;;;;;-0.26;87.76;101298.97;5047257;28;20191;-72
2022/01/06 04:03:30;;;;;;;9.17;1.57;;;;;;;-0.18;88.54;101305.41;5049290;28;20197;-72
2022/01/06 04:05:56;;;;;;;4.47;1.30;;;;;;;-0.16;88.32;101306.38;5048801;28;20270;-72
2022/01/06 04:08:21;;;;;;;5.77;1.73;;;;;;;-0.17;89.24;101304.63;5047815;28;20193;-71
2022/01/06 04:10:46;;;;;;;9.03;1.77;;;;;;;-0.20;88.69;101306.91;5051167;28;20194;-71
2022/01/06 04:13:11;;;;;;;3.93;1.83;;;;;;;-0.26;88.75;101306.50;5050343;28;20205;-71
2022/01/06 04:15:37;;;;;;;2.77;1.60;;;;;;;-0.29;88.56;101309.69;5050548;28;20202;-72
2022/01/06 04:18:02;;;;;;;7.10;1.80;;;;;;;-0.34;88.75;101316.03;5050382;28;20202;-72
2022/01/06 04:20:27;;;;;;;4.60;1.60;;;;;;;-0.37;88.45;101320.84;5053256;28;20208;-72
2022/01/06 04:22:53;;;;;;;5.13;1.67;;;;;;;-0.40;88.50;101329.84;5044492;28;20186;-71
2022/01/06 04:25:18;;;;;;;5.83;1.60;;;;;;;-0.43;89.11;101338.03;5051637;28;20224;-71
2022/01/06 04:27:43;;;;;;;7.27;1.50;;;;;;;-0.38;89.26;101333.31;5049186;28;20710;-71
2022/01/06 04:30:09;;;;;;;5.63;1.90;;;;;;;-0.39;89.20;101331.56;5050357;28;20737;-71
2022/01/06 04:32:35;;;;;;;4.73;1.63;;;;;;;-0.37;90.05;101340.09;5044820;28;20193;-71
2022/01/06 04:35:03;;;;;;;3.97;1.87;;;;;;;-0.37;89.08;101340.97;5050083;28;20550;-71
2022/01/06 04:37:28;;;;;;;7.33;1.80;;;;;;;-0.38;89.08;101354.31;5050555;28;20214;-71
2022/01/06 04:39:54;;;;;;;2.80;1.60;;;;;;;-0.38;88.50;101350.91;5050010;28;20193;-71
2022/01/06 04:42:20;;;;;;;5.90;1.80;;;;;;;-0.37;89.04;101348.50;5045413;28;20193;-72
2022/01/06 04:44:45;;;;;;;5.97;1.73;;;;;;;-0.39;88.80;101352.56;5049856;28;20235;-71
2022/01/06 04:47:10;;;;;;;8.60;1.90;;;;;;;-0.40;88.51;101354.97;5050341;28;20555;-72
2022/01/06 04:49:36;;;;;;;5.43;1.70;;;;;;;-0.44;89.41;101366.47;5047069;28;20200;-72
2022/01/06 04:52:01;;;;;;;7.37;1.80;;;;;;;-0.43;89.50;101372.34;5050478;28;20605;-72
2022/01/06 04:54:27;;;;;;;8.03;1.80;;;;;;;-0.40;89.25;101385.16;5051152;28;20190;-72
2022/01/06 04:56:52;;;;;;;8.70;2.07;;;;;;;-0.37;89.59;101383.72;5047590;28;20224;-71
2022/01/06 04:59:18;;;;;;;8.10;2.50;;;;;;;-0.29;89.98;101385.16;5050653;28;20182;-71
2022/01/06 05:01:43;;;;;;;12.23;3.00;;;;;;;-0.20;90.41;101390.81;5050027;28;20673;-72
2022/01/06 05:04:08;;;;;;;9.60;3.20;;;;;;;-0.13;90.30;101394.66;5043215;28;20663;-71
2022/01/06 05:06:34;;;;;;;9.00;2.10;;;;;;;-0.10;90.22;101402.38;5044256;28;20297;-72
2022/01/06 05:08:59;;;;;;;9.40;2.43;;;;;;;-0.12;90.11;101398.91;5049424;28;20320;-72
2022/01/06 05:11:25;;;;;;;8.87;2.60;;;;;;;-0.16;90.79;101401.97;5043791;28;20331;-72
2022/01/06 05:13:50;;;;;;;6.03;1.97;;;;;;;-0.17;90.93;101405.25;5048021;28;20201;-72
2022/01/06 05:16:15;;;;;;;5.20;2.07;;;;;;;-0.21;90.41;101413.34;5049726;28;20209;-71
2022/01/06 05:18:41;;;;;;;9.97;2.23;;;;;;;-0.23;90.00;101412.38;5041153;28;20831;-71
2022/01/06 05:21:07;;;;;;;4.90;2.07;;;;;;;-0.25;91.01;101408.88;5044728;28;20786;-71
2022/01/06 05:23:33;;;;;;;5.33;1.87;;;;;;;-0.27;90.68;101408.75;5031859;28;20190;-72
2022/01/06 05:25:59;;;;;;;6.03;1.90;;;;;;;-0.27;90.25;101418.81;5049555;28;21970;-72
2022/01/06 05:28:24;;;;;;;9.23;2.20;;;;;;;-0.29;90.60;101412.81;5050213;28;20193;-72
2022/01/06 05:30:50;;;;;;;6.53;1.70;;;;;;;-0.27;90.35;101420.47;5047354;28;20194;-71
2022/01/06 05:33:15;;;;;;;4.33;1.30;;;;;;;-0.27;90.12;101430.53;5049819;28;20185;-71
2022/01/06 05:35:40;;;;;;;9.80;1.80;;;;;;;-0.27;89.96;101433.06;5049713;28;20574;-71
2022/01/06 05:38:06;;;;;;;12.67;3.73;;;;;;;-0.31;89.87;101436.97;5045090;28;20264;-71
2022/01/06 05:40:31;;;;;;;5.57;1.70;;;;;;;-0.34;89.78;101446.81;5051082;28;20194;-71
2022/01/06 05:42:57;;;;;;;5.47;1.60;;;;;;;-0.34;89.91;101443.44;5044962;28;20193;-71
2022/01/06 05:45:24;;;;;;;7.10;1.50;;;;;;;-0.40;90.53;101453.06;5046130;28;20214;-72
2022/01/06 05:47:49;;;;;;;4.50;1.80;;;;;;;-0.40;90.59;101450.53;5041901;28;20190;-71
2022/01/06 05:50:15;;;;;;;8.10;1.90;;;;;;;-0.42;90.14;101464.63;5049897;28;20689;-71
2022/01/06 05:52:40;;;;;;;6.43;1.90;;;;;;;-0.44;90.28;101473.72;5050131;28;20192;-71
2022/01/06 05:55:06;;;;;;;7.17;2.10;;;;;;;-0.43;90.12;101478.84;5047040;28;20191;-72
2022/01/06 05:57:31;;;;;;;7.97;2.30;;;;;;;-0.43;90.36;101486.41;5047167;28;20217;-71
2022/01/06 05:59:57;;;;;;;3.63;2.10;;;;;;;-0.45;90.56;101484.53;5050026;28;20230;-71
2022/01/06 06:02:22;;;;;;;6.10;2.50;;;;;;;-0.49;89.58;101487.59;5047059;28;20197;-71
2022/01/06 06:04:47;;;;;;;4.87;2.03;;;;;;;-0.55;89.85;101484.63;5049946;28;20178;-71
2022/01/06 06:07:13;;;;;;;4.50;2.00;;;;;;;-0.59;89.51;101491.06;5049727;28;20259;-72
2022/01/06 06:09:38;;;;;;;6.63;2.77;;;;;;;-0.59;89.74;101483.53;5049663;28;20213;-71
2022/01/06 06:12:06;;;;;;;7.23;2.50;;;;;;;-0.69;89.55;101497.84;5049749;28;20236;-71
2022/01/06 06:14:32;;;;;;;5.40;2.40;;;;;;;-0.65;90.13;101493.13;5045255;28;20182;-71
2022/01/06 06:16:57;;;;;;;7.07;2.87;;;;;;;-0.65;89.82;101502.31;5029879;28;20317;-71
2022/01/06 06:19:22;;;;;;;8.27;2.83;;;;;;;-0.67;89.97;101503.84;5028817;28;20211;-72
2022/01/06 06:21:47;;;;;;;4.63;2.63;;;;;;;-0.69;90.01;101508.75;5029842;28;20203;-71
2022/01/06 06:24:13;;;;;;;7.10;2.53;;;;;;;-0.71;90.03;101511.91;5029629;28;20197;-72
2022/01/06 06:26:38;;;;;;;3.57;2.30;;;;;;;-0.73;89.24;101516.81;5029458;28;20217;-72
2022/01/06 06:29:04;;;;;;;6.63;2.40;;;;;;;-0.78;89.51;101530.69;5044184;28;20778;-72
2022/01/06 06:31:29;;;;;;;7.23;3.00;;;;;;;-0.82;89.54;101528.69;5029678;28;20599;-71
2022/01/06 06:33:55;;;;;;;5.83;2.20;;;;;;;-0.85;89.34;101536.03;5029715;28;20771;-71
2022/01/06 06:36:20;;;;;;;3.97;2.20;;;;;;;-0.88;89.34;101535.78;5036909;28;20713;-71
2022/01/06 06:38:45;;;;;;;6.97;2.40;;;;;;;-0.89;89.21;101536.56;5047995;28;20214;-72
2022/01/06 06:41:11;;;;;;;5.73;2.47;;;;;;;-0.89;90.04;101539.06;5048043;28;20269;-72
2022/01/06 06:43:36;;;;;;;4.77;2.20;;;;;;;-0.95;90.32;101543.66;5048077;28;20272;-72
2022/01/06 06:46:01;;;;;;;6.87;2.90;;;;;;;-0.95;90.56;101550.28;5049380;28;20225;-72
2022/01/06 06:48:27;;;;;;;7.77;2.60;;;;;;;-0.97;90.24;101555.19;5049310;28;20220;-72
2022/01/06 06:50:52;;;;;;;4.87;2.80;;;;;;;-1.02;90.01;101566.53;5046238;28;20280;-72
2022/01/06 06:53:17;;;;;;;5.53;2.33;;;;;;;-1.12;90.23;101565.72;5045355;28;20193;-72
2022/01/06 06:55:43;;;;;;;9.50;2.80;;;;;;;-1.12;90.08;101556.56;5049289;28;20232;-72
2022/01/06 06:58:08;;;;;;;5.93;2.83;;;;;;;-1.12;90.49;101558.19;5049127;28;20260;-71
2022/01/06 07:00:33;;;;;;;5.17;2.10;;;;;;;-1.16;91.27;101567.13;5049333;28;20216;-71
2022/01/06 07:02:59;;;;;;;7.50;2.10;;;;;;;-1.16;90.83;101563.72;5049344;28;20563;-71
2022/01/06 07:05:24;;;;;;;4.17;1.80;;;;;;;-1.16;90.61;101566.22;5047949;28;20571;-71
2022/01/06 07:07:49;;;;;;;6.70;1.97;;;;;;;-1.13;90.89;101574.00;5049050;28;20204;-71
2022/01/06 07:10:15;;;;;;;4.57;1.90;;;;;;;-1.12;90.69;101574.13;5042495;28;20644;-71
2022/01/06 07:12:44;;;;;;;6.23;1.60;;;;;;;-1.14;90.56;101577.28;5029252;28;20635;-71
2022/01/06 07:15:12;;;;;;;5.60;1.77;;;;;;;-1.17;90.24;101582.06;5029211;28;20190;-71
2022/01/06 07:17:38;;;;;;;5.83;1.80;;;;;;;-1.19;90.13;101586.13;5029452;28;20572;-71
2022/01/06 07:20:04;;;;;;;3.83;1.80;;;;;;;-1.26;89.96;101587.28;5044307;28;20190;-72
2022/01/06 07:22:30;;;;;;;4.10;1.80;;;;;;;-1.22;89.64;101593.41;5029137;28;20186;-72
2022/01/06 07:24:55;;;;;;;3.43;1.57;;;;;;;-1.19;90.13;101596.16;5028874;28;20286;-72
2022/01/06 07:27:21;;;;;;;4.97;1.70;;;;;;;-1.21;90.40;101597.66;5029487;28;20241;-72
2022/01/06 07:29:46;;;;;;;3.40;1.33;;;;;;;-1.19;89.87;101592.00;5028892;28;20269;-72
2022/01/06 07:32:12;;;;;;;3.63;1.30;;;;;;;-1.26;89.23;101588.91;5028995;28;20183;-72
2022/01/06 07:34:37;;;;;;;5.00;1.43;;;;;;;-1.33;89.24;101599.25;5029055;28;20269;-72
2022/01/06 07:37:03;;;;;;;5.23;1.93;;;;;;;-1.29;90.08;101591.19;5029036;28;20249;-72
2022/01/06 07:39:28;;;;;;;6.03;2.00;;;;;;;-1.26;90.99;101589.78;5043993;28;20178;-72
2022/01/06 07:41:54;;;;;;;4.57;1.70;;;;;;;-1.23;91.46;101591.66;5047067;28;20195;-73
2022/01/06 07:44:21;;;;;;;5.03;1.67;;;;;;;-1.21;91.34;101593.53;5052091;28;20572;-73
2022/01/06 07:46:47;;;;;;;4.03;1.90;;;;;;;-1.18;91.46;101602.94;5032470;28;20214;-71
2022/01/06 07:49:12;;;;;;;5.63;1.67;;;;;;;-1.14;91.74;101608.28;5032386;28;20187;-72
2022/01/06 07:51:38;;;;;;;6.63;2.43;;;;;;;-1.12;91.87;101614.31;5067639;28;20660;-73
2022/01/06 07:54:04;;;;;;;4.40;1.93;;;;;;;-1.10;91.69;101619.47;5034370;28;20476;-72
2022/01/06 07:56:29;;;;;;;5.63;1.73;;;;;;;-1.03;92.15;101615.03;5040283;28;20755;-71
2022/01/06 07:58:55;;;;;;;5.40;1.90;;;;;;;-1.02;92.19;101618.41;5051804;28;20320;-71
2022/01/06 08:01:21;;;;;;;6.00;2.30;;;;;;;-1.00;91.81;101624.44;5044371;28;20216;-72
2022/01/06 08:03:47;;;;;;;7.80;2.47;;;;;;;-0.96;92.43;101636.50;5046003;28;20555;-71
2022/01/06 08:06:13;;;;;;;7.87;3.73;;;;;;;-0.94;92.17;101638.34;5051779;28;20252;-72
2022/01/06 08:08:38;;;;;;;6.77;2.83;;;;;;;-0.96;92.48;101644.88;5051794;28;20669;-72
2022/01/06 08:11:04;;;;;;;9.93;3.00;;;;;;;-1.00;91.63;101645.41;5050749;28;20194;-73
2022/01/06 08:13:29;;;;;;;4.30;2.50;;;;;;;-1.04;90.85;101652.59;5051902;28;20280;-72
2022/01/06 08:15:55;;;;;;;6.03;2.63;;;;;;;-1.06;90.43;101646.59;5054453;28;20205;-73
2022/01/06 08:18:20;;;;;;;6.27;2.60;;;;;;;-1.12;90.06;101651.13;5045623;28;20265;-72
2022/01/06 08:20:46;;;;;;;10.93;2.40;;;;;;;-1.07;89.92;101660.78;5031939;28;20183;-72
2022/01/06 08:23:11;;;;;;;7.87;2.40;;;;;;;-1.04;89.49;101656.00;5031680;28;20640;-73
2022/01/06 08:25:37;;;;;;;9.50;2.73;;;;;;;-1.01;89.61;101656.22;5031532;28;20566;-73
2022/01/06 08:28:03;;;;;;;10.00;2.10;;;;;;;-0.98;89.64;101651.44;5034262;28;20268;-73
2022/01/06 08:30:29;;;;;;;5.83;2.43;;;;;;;-0.94;89.57;101655.94;5050662;28;20242;-73
2022/01/06 08:32:55;;;;;;;7.03;2.20;;;;;;;-0.81;90.37;101661.16;5051716;28;20229;-73
2022/01/06 08:35:21;;;;;;;5.70;2.27;;;;;;;-0.82;89.83;101659.38;5044029;28;20214;-72
2022/01/06 08:37:47;;;;;;;4.17;2.33;;;;;;;-0.77;89.57;101657.25;5031366;28;20206;-73
2022/01/06 08:40:13;;;;;;;6.60;2.50;;;;;;;-0.74;89.77;101659.97;5031582;28;20189;-73
2022/01/06 08:42:38;;;;;;;6.20;2.03;;;;;;;-0.75;90.09;101660.75;5031911;28;20179;-73
2022/01/06 08:45:04;;;;;;;6.63;2.50;;;;;;;-0.72;90.03;101674.41;5031566;28;20190;-73
2022/01/06 08:47:31;;;;;;;8.50;2.60;;;;;;;-0.75;90.13;101679.22;5031439;28;20218;-72
2022/01/06 08:49:56;;;;;;;7.73;2.40;;;;;;;-0.67;90.62;101683.22;5043752;28;20604;-74
2022/01/06 08:52:23;;;;;;;6.93;2.33;;;;;;;-0.57;90.90;101682.25;5042378;28;20269;-73
2022/01/06 08:54:48;;;;;;;5.23;2.20;;;;;;;-0.52;90.72;101691.91;5037318;28;20229;-73
2022/01/06 08:57:14;;;;;;;7.07;2.30;;;;;;;-0.52;90.92;101693.53;5050936;28;20992;-73
2022/01/06 08:59:40;;;;;;;5.03;2.33;;;;;;;-0.35;90.99;101693.19;5049844;28;20198;-74
2022/01/06 09:02:05;;;;;;;5.23;2.00;;;;;;;-0.21;90.47;101682.53;5049668;28;20185;-73
2022/01/06 09:04:31;;;;;;;8.30;2.43;;;;;;;-0.19;90.25;101681.88;5051183;28;20190;-75
2022/01/06 09:06:58;;;;;;;5.97;2.00;;;;;;;-0.10;89.97;101679.16;5049042;28;20220;-74
2022/01/06 09:09:24;;;;;;;9.37;4.23;;;;;;;-0.06;89.24;101684.53;5042755;28;20201;-72
2022/01/06 09:11:50;;;;;;;8.43;4.33;;;;;;;0.03;89.56;101680.97;5031212;28;20187;-72
2022/01/06 09:14:15;;;;;;;12.27;4.83;;;;;;;0.05;88.89;101685.34;5030787;28;20194;-71
2022/01/06 09:16:41;;;;;;;7.07;4.03;;;;;;;0.09;89.27;101685.69;5030809;28;20237;-71
2022/01/06 09:19:06;;;;;;;6.63;3.20;;;;;;;0.15;88.74;101691.16;5030621;28;20552;-72
2022/01/06 09:21:32;;;;;;;8.77;2.63;;;;;;;0.27;90.38;101691.19;5030597;28;20309;-72
2022/01/06 09:23:59;;;;;;;10.50;4.10;;;;;;;0.36;90.55;101685.97;5030655;28;20240;-73
2022/01/06 09:26:25;;;;;;;13.53;4.10;;;;;;;0.42;90.49;101688.91;5031060;28;20337;-73
2022/01/06 09:28:51;;;;;;;8.83;4.03;;;;;;;0.57;90.80;101700.09;5030491;28;20275;-72
2022/01/06 09:31:16;;;;;;;8.13;3.27;;;;;;;0.70;90.13;101695.16;5030748;28;20197;-71
2022/01/06 09:33:41;;;;;;;9.77;3.10;;;;;;;0.75;90.85;101699.78;5030853;28;20179;-71
2022/01/06 09:36:07;;;;;;;5.83;2.33;;;;;;;0.86;90.11;101698.88;5030372;28;20210;-72
2022/01/06 09:38:33;;;;;;;7.00;2.63;;;;;;;0.95;89.88;101701.16;5012417;28;20309;-73
2022/01/06 09:41:03;;;;;;;5.33;2.40;;;;;;;1.07;90.09;101702.03;5043509;28;20280;-71
2022/01/06 09:43:31;;;;;;;5.87;1.93;;;;;;;1.21;89.71;101699.72;5051254;28;20194;-71
2022/01/06 09:46:01;;;;;;;8.13;1.90;;;;;;;1.43;88.71;101712.19;5030254;28;20266;-72
2022/01/06 09:48:29;;;;;;;6.40;1.97;;;;;;;1.60;87.42;101717.59;5059552;28;20192;-72
2022/01/06 09:50:56;;;;;;;8.60;2.10;;;;;;;1.82;87.03;101714.88;5048762;28;20911;-72
2022/01/06 09:53:21;;;;;;;5.87;1.87;;;;;;;1.97;85.88;101716.78;5049698;28;20198;-72
2022/01/06 09:55:46;;;;;;;7.40;1.90;;;;;;;2.21;85.33;101712.50;5035391;28;20237;-72
2022/01/06 09:58:20;;;;;;;7.77;2.17;;;;;;;2.53;84.43;101706.25;5049662;28;20202;-72
2022/01/06 10:00:46;;;;;;;3.77;1.90;;;;;;;2.76;83.31;101697.63;5051490;28;20195;-72
2022/01/06 10:03:11;;;;;;;6.00;1.70;;;;;;;3.05;82.11;101695.28;5057179;28;20866;-72
2022/01/06 10:05:42;;;;;;;7.30;2.20;;;;;;;3.15;80.97;101708.59;5048978;28;20258;-72
2022/01/06 10:08:09;;;;;;;5.97;1.80;;;;;;;3.26;80.70;101702.53;5048311;28;20178;-73
2022/01/06 10:10:35;;;;;;;7.10;2.03;;;;;;;3.71;79.86;101700.28;5048466;28;20224;-73
2022/01/06 10:13:06;;;;;;;10.33;2.20;;;;;;;3.92;78.88;101703.22;5049696;28;20216;-72
2022/01/06 10:15:32;;;;;;;5.57;1.97;;;;;;;4.26;77.98;101691.72;5049565;28;20214;-72
2022/01/06 10:18:09;;;;;;;6.90;1.50;;;;;;;4.46;77.39;101701.38;5036708;28;20300;-74
2022/01/06 10:20:35;;;;;;;7.60;2.23;;;;;;;4.90;76.58;101695.47;5029749;28;20183;-73
2022/01/06 10:23:00;;;;;;;5.53;1.93;;;;;;;5.22;75.30;101697.22;5044898;28;20237;-74
2022/01/06 10:25:31;;;;;;;4.10;1.80;;;;;;;5.44;73.09;101695.88;5029476;28;20228;-71
2022/01/06 10:27:56;;;;;;;5.33;2.10;;;;;;;5.90;71.29;101696.69;5029578;28;20170;-74
2022/01/06 10:30:25;;;;;;;9.73;1.97;;;;;;;6.15;70.43;101694.56;5029328;28;20255;-73
2022/01/06 10:32:57;;;;;;;8.90;2.07;;;;;;;6.47;69.81;101695.38;5029458;28;20257;-74
2022/01/06 10:35:22;;;;;;;4.30;1.50;;;;;;;6.77;68.40;101685.81;5057018;28;20698;-74
2022/01/06 10:37:48;;;;;;;3.80;1.40;;;;;;;7.19;66.48;101698.03;5029291;28;20214;-74
2022/01/06 10:40:17;;;;;;;5.03;1.90;;;;;;;10.94;56.58;101682.28;5029294;28;20198;-74
2022/01/06 10:42:47;;;;;;;9.53;2.03;;;;;;;12.82;48.38;101681.59;5029249;28;20208;-71
2022/01/06 10:45:20;;;;;;;4.23;1.70;;;;;;;12.69;47.91;101684.72;5029339;28;20186;-71
2022/01/06 10:47:49;;;;;;;5.63;1.77;;;;;;;12.12;49.08;101685.78;5029532;28;20236;-71
2022/01/06 10:50:18;;;;;;;5.37;1.57;;;;;;;10.52;54.52;101693.72;5044500;28;20219;-72
2022/01/06 10:53:05;;;;;;;7.03;1.83;;;;;;;10.04;55.97;101692.03;5048594;28;20181;-72
2022/01/06 10:55:32;;;;;;;4.13;1.90;;;;;;;9.89;56.04;101691.47;5033431;28;20248;-72
2022/01/06 10:58:01;;;;;;;9.37;1.83;;;;;;;10.09;55.94;101691.38;5048949;28;20216;-72
2022/01/06 11:00:32;;;;;;;6.07;2.13;;;;;;;9.91;56.40;101693.25;5049090;28;20179;-73
2022/01/06 11:03:09;;;;;;;5.17;2.40;;;;;;;10.22;55.41;101695.22;5049074;28;20185;-73
2022/01/06 11:05:36;;;;;;;3.90;1.60;;;;;;;10.29;56.50;101698.06;5048938;28;20212;-70
2022/01/06 11:08:04;;;;;;;4.83;1.80;;;;;;;10.65;55.45;101696.72;5043908;28;20268;-70
2022/01/06 11:10:29;;;;;;;4.33;2.10;;;;;;;10.58;54.26;101697.34;5029486;28;20889;-70
2022/01/06 11:12:55;;;;;;;5.37;1.90;;;;;;;10.91;54.43;101700.09;5029177;28;20286;-71
2022/01/06 11:15:20;;;;;;;5.23;1.93;;;;;;;11.94;50.96;101695.56;5029441;28;20281;-71
2022/01/06 11:17:47;;;;;;;2.60;1.53;;;;;;;12.60;49.57;101694.78;5032876;28;20746;-71
2022/01/06 11:20:14;;;;;;;7.70;2.30;;;;;;;12.95;49.01;101683.63;5032536;28;20273;-71
2022/01/06 11:22:51;;;;;;;4.10;1.80;;;;;;;13.01;48.28;101687.19;5033048;28;20620;-72
2022/01/06 11:25:16;;;;;;;5.40;2.33;;;;;;;12.78;47.48;101689.19;5033289;28;20220;-72
2022/01/06 11:27:41;;;;;;;7.73;2.63;;;;;;;13.21;47.28;101691.09;5032958;28;20647;-72
2022/01/06 11:30:15;;;;;;;5.17;2.23;;;;;;;13.38;46.33;101690.63;5047981;28;20281;-71